sensor_id;sensor_type;location;lat;lon;timestamp;temperature;humidity
16301;DHT22;8258;51.020;4.248;2022-10-04T00:02:05;10.60;99.90
16301;DHT22;8258;51.020;4.248;2022-10-04T00:04:45;10.60;99.90
16301;DHT22;8258;51.020;4.248;2022-10-04T00:07:18;10.60;99.90
16301;DHT22;8258;51.020;4.248;2022-10-04T00:09:50;10.50;99.90
16301;DHT22;8258;51.020;4.248;2022-10-04T00:12:20;10.40;99.90
16301;DHT22;8258;51.020;4.248;2022-10-04T00:14:51;10.40;99.90
16301;DHT22;8258;51.020;4.248;2022-10-04T00:17:27;10.50;99.90
16301;DHT22;8258;51.020;4.248;2022-10-04T00:19:57;10.50;99.90
16301;DHT22;8258;51.020;4.248;2022-10-04T00:22:26;10.50;99.90
16301;DHT22;8258;51.020;4.248;2022-10-04T00:25:23;10.30;99.90
16301;DHT22;8258;51.020;4.248;2022-10-04T00:28:29;10.30;99.90
16301;DHT22;8258;51.020;4.248;2022-10-04T00:31:22;10.30;99.90
16301;DHT22;8258;51.020;4.248;2022-10-04T00:36:50;10.20;99.90
16301;DHT22;8258;51.020;4.248;2022-10-04T00:39:38;10.10;99.90
16301;DHT22;8258;51.020;4.248;2022-10-04T00:42:28;10.10;99.90
16301;DHT22;8258;51.020;4.248;2022-10-04T00:44:59;10.10;99.90
16301;DHT22;8258;51.020;4.248;2022-10-04T00:47:31;10.10;99.90
16301;DHT22;8258;51.020;4.248;2022-10-04T00:50:09;10.10;99.90
16301;DHT22;8258;51.020;4.248;2022-10-04T00:52:43;10.00;99.90
16301;DHT22;8258;51.020;4.248;2022-10-04T00:55:19;10.00;99.90
16301;DHT22;8258;51.020;4.248;2022-10-04T00:57:53;10.00;99.90
16301;DHT22;8258;51.020;4.248;2022-10-04T01:00:24;9.90;99.90
16301;DHT22;8258;51.020;4.248;2022-10-04T01:02:54;9.90;99.90
16301;DHT22;8258;51.020;4.248;2022-10-04T01:05:27;9.90;99.90
16301;DHT22;8258;51.020;4.248;2022-10-04T01:08:03;9.80;99.90
16301;DHT22;8258;51.020;4.248;2022-10-04T01:10:35;9.70;99.90
16301;DHT22;8258;51.020;4.248;2022-10-04T01:13:10;9.80;99.90
16301;DHT22;8258;51.020;4.248;2022-10-04T01:15:42;9.80;99.90
16301;DHT22;8258;51.020;4.248;2022-10-04T01:18:13;9.80;99.90
16301;DHT22;8258;51.020;4.248;2022-10-04T01:20:51;9.80;99.90
16301;DHT22;8258;51.020;4.248;2022-10-04T01:23:39;9.70;99.90
16301;DHT22;8258;51.020;4.248;2022-10-04T01:29:09;9.90;99.90
16301;DHT22;8258;51.020;4.248;2022-10-04T01:31:38;9.80;99.90
16301;DHT22;8258;51.020;4.248;2022-10-04T01:34:07;9.70;99.90
16301;DHT22;8258;51.020;4.248;2022-10-04T01:36:34;9.70;99.90
16301;DHT22;8258;51.020;4.248;2022-10-04T01:39:04;9.60;99.90
16301;DHT22;8258;51.020;4.248;2022-10-04T01:41:37;9.50;99.90
16301;DHT22;8258;51.020;4.248;2022-10-04T01:44:08;9.50;99.90
16301;DHT22;8258;51.020;4.248;2022-10-04T01:46:37;9.50;99.90
16301;DHT22;8258;51.020;4.248;2022-10-04T01:49:08;9.40;99.90
16301;DHT22;8258;51.020;4.248;2022-10-04T01:51:41;9.50;99.90
16301;DHT22;8258;51.020;4.248;2022-10-04T01:54:13;9.60;99.90
16301;DHT22;8258;51.020;4.248;2022-10-04T01:56:45;9.60;99.90
16301;DHT22;8258;51.020;4.248;2022-10-04T01:59:16;9.60;99.90
16301;DHT22;8258;51.020;4.248;2022-10-04T02:01:47;9.50;99.90
16301;DHT22;8258;51.020;4.248;2022-10-04T02:04:16;9.50;99.90
16301;DHT22;8258;51.020;4.248;2022-10-04T02:06:46;9.50;99.90
16301;DHT22;8258;51.020;4.248;2022-10-04T02:09:18;9.50;99.90
16301;DHT22;8258;51.020;4.248;2022-10-04T02:11:48;9.50;99.90
16301;DHT22;8258;51.020;4.248;2022-10-04T02:14:20;9.50;99.90
16301;DHT22;8258;51.020;4.248;2022-10-04T02:16:49;9.50;99.90
16301;DHT22;8258;51.020;4.248;2022-10-04T02:19:19;9.50;99.90
16301;DHT22;8258;51.020;4.248;2022-10-04T02:21:47;9.40;99.90
16301;DHT22;8258;51.020;4.248;2022-10-04T02:24:16;9.40;99.90
16301;DHT22;8258;51.020;4.248;2022-10-04T02:26:48;9.30;99.90
16301;DHT22;8258;51.020;4.248;2022-10-04T02:29:16;9.30;99.90
16301;DHT22;8258;51.020;4.248;2022-10-04T02:31:50;9.20;99.90
16301;DHT22;8258;51.020;4.248;2022-10-04T02:34:35;9.20;99.90
16301;DHT22;8258;51.020;4.248;2022-10-04T02:37:03;9.10;99.90
16301;DHT22;8258;51.020;4.248;2022-10-04T02:39:36;9.10;99.90
16301;DHT22;8258;51.020;4.248;2022-10-04T02:42:13;9.10;99.90
16301;DHT22;8258;51.020;4.248;2022-10-04T02:44:46;9.10;99.90
16301;DHT22;8258;51.020;4.248;2022-10-04T02:47:18;9.00;99.90
16301;DHT22;8258;51.020;4.248;2022-10-04T02:49:47;9.00;99.90
16301;DHT22;8258;51.020;4.248;2022-10-04T02:52:20;8.90;99.90
16301;DHT22;8258;51.020;4.248;2022-10-04T02:54:54;8.90;99.90
16301;DHT22;8258;51.020;4.248;2022-10-04T02:57:26;9.00;99.90
16301;DHT22;8258;51.020;4.248;2022-10-04T03:00:06;9.00;99.90
16301;DHT22;8258;51.020;4.248;2022-10-04T03:02:35;8.90;99.90
16301;DHT22;8258;51.020;4.248;2022-10-04T03:05:05;8.90;99.90
16301;DHT22;8258;51.020;4.248;2022-10-04T03:07:34;8.90;99.90
16301;DHT22;8258;51.020;4.248;2022-10-04T03:10:05;8.90;99.90
16301;DHT22;8258;51.020;4.248;2022-10-04T03:12:34;8.80;99.90
16301;DHT22;8258;51.020;4.248;2022-10-04T03:15:05;8.80;99.90
16301;DHT22;8258;51.020;4.248;2022-10-04T03:17:33;8.90;99.90
16301;DHT22;8258;51.020;4.248;2022-10-04T03:20:01;8.90;99.90
16301;DHT22;8258;51.020;4.248;2022-10-04T03:22:28;8.90;99.90
16301;DHT22;8258;51.020;4.248;2022-10-04T03:24:57;9.00;99.90
16301;DHT22;8258;51.020;4.248;2022-10-04T03:27:29;9.00;99.90
16301;DHT22;8258;51.020;4.248;2022-10-04T03:29:57;9.00;99.90
16301;DHT22;8258;51.020;4.248;2022-10-04T03:32:27;9.00;99.90
16301;DHT22;8258;51.020;4.248;2022-10-04T03:34:57;9.00;99.90
16301;DHT22;8258;51.020;4.248;2022-10-04T03:37:25;8.90;99.90
16301;DHT22;8258;51.020;4.248;2022-10-04T03:39:54;8.90;99.90
16301;DHT22;8258;51.020;4.248;2022-10-04T03:42:26;8.90;99.90
16301;DHT22;8258;51.020;4.248;2022-10-04T03:44:55;8.90;99.90
16301;DHT22;8258;51.020;4.248;2022-10-04T03:47:27;8.80;99.90
16301;DHT22;8258;51.020;4.248;2022-10-04T03:49:57;8.80;99.90
16301;DHT22;8258;51.020;4.248;2022-10-04T03:52:26;8.80;99.90
16301;DHT22;8258;51.020;4.248;2022-10-04T03:54:58;8.80;99.90
16301;DHT22;8258;51.020;4.248;2022-10-04T03:57:28;8.80;99.90
16301;DHT22;8258;51.020;4.248;2022-10-04T03:59:56;8.70;99.90
16301;DHT22;8258;51.020;4.248;2022-10-04T04:02:29;8.70;99.90
16301;DHT22;8258;51.020;4.248;2022-10-04T04:05:05;8.70;99.90
16301;DHT22;8258;51.020;4.248;2022-10-04T04:07:37;8.80;99.90
16301;DHT22;8258;51.020;4.248;2022-10-04T04:10:13;8.80;99.90
16301;DHT22;8258;51.020;4.248;2022-10-04T04:12:46;8.80;99.90
16301;DHT22;8258;51.020;4.248;2022-10-04T04:15:17;8.70;99.90
16301;DHT22;8258;51.020;4.248;2022-10-04T04:17:45;8.80;99.90
16301;DHT22;8258;51.020;4.248;2022-10-04T04:20:18;8.70;99.90
16301;DHT22;8258;51.020;4.248;2022-10-04T04:22:55;8.70;99.90
16301;DHT22;8258;51.020;4.248;2022-10-04T04:25:23;8.70;99.90
16301;DHT22;8258;51.020;4.248;2022-10-04T04:27:58;8.80;99.90
16301;DHT22;8258;51.020;4.248;2022-10-04T04:30:28;8.90;99.90
16301;DHT22;8258;51.020;4.248;2022-10-04T04:32:56;8.90;99.90
16301;DHT22;8258;51.020;4.248;2022-10-04T04:35:29;9.00;99.90
16301;DHT22;8258;51.020;4.248;2022-10-04T04:38:04;8.90;99.90
16301;DHT22;8258;51.020;4.248;2022-10-04T04:40:32;8.90;99.90
16301;DHT22;8258;51.020;4.248;2022-10-04T04:43:01;8.90;99.90
16301;DHT22;8258;51.020;4.248;2022-10-04T04:45:30;8.80;99.90
16301;DHT22;8258;51.020;4.248;2022-10-04T04:47:59;8.70;99.90
16301;DHT22;8258;51.020;4.248;2022-10-04T04:50:29;8.70;99.90
16301;DHT22;8258;51.020;4.248;2022-10-04T04:53:00;8.70;99.90
16301;DHT22;8258;51.020;4.248;2022-10-04T04:55:33;8.70;99.90
16301;DHT22;8258;51.020;4.248;2022-10-04T04:58:03;8.70;99.90
16301;DHT22;8258;51.020;4.248;2022-10-04T05:00:34;8.70;99.90
16301;DHT22;8258;51.020;4.248;2022-10-04T05:03:05;8.70;99.90
16301;DHT22;8258;51.020;4.248;2022-10-04T05:05:33;8.70;99.90
16301;DHT22;8258;51.020;4.248;2022-10-04T05:08:16;8.70;99.90
16301;DHT22;8258;51.020;4.248;2022-10-04T05:10:46;8.60;99.90
16301;DHT22;8258;51.020;4.248;2022-10-04T05:13:16;8.60;99.90
16301;DHT22;8258;51.020;4.248;2022-10-04T05:15:45;8.70;99.90
16301;DHT22;8258;51.020;4.248;2022-10-04T05:18:25;8.70;99.90
16301;DHT22;8258;51.020;4.248;2022-10-04T05:20:55;8.60;99.90
16301;DHT22;8258;51.020;4.248;2022-10-04T05:23:23;8.60;99.90
16301;DHT22;8258;51.020;4.248;2022-10-04T05:25:50;8.50;99.90
16301;DHT22;8258;51.020;4.248;2022-10-04T05:28:19;8.50;99.90
16301;DHT22;8258;51.020;4.248;2022-10-04T05:30:53;8.50;99.90
16301;DHT22;8258;51.020;4.248;2022-10-04T05:33:30;8.50;99.90
16301;DHT22;8258;51.020;4.248;2022-10-04T05:36:35;8.50;99.90
16301;DHT22;8258;51.020;4.248;2022-10-04T05:39:10;8.40;99.90
16301;DHT22;8258;51.020;4.248;2022-10-04T05:41:47;8.30;99.90
16301;DHT22;8258;51.020;4.248;2022-10-04T05:44:23;8.40;99.90
16301;DHT22;8258;51.020;4.248;2022-10-04T05:46:53;8.30;99.90
16301;DHT22;8258;51.020;4.248;2022-10-04T05:49:21;8.30;99.90
16301;DHT22;8258;51.020;4.248;2022-10-04T05:51:52;8.10;99.90
16301;DHT22;8258;51.020;4.248;2022-10-04T05:54:22;8.00;99.90
16301;DHT22;8258;51.020;4.248;2022-10-04T05:57:13;8.00;99.90
16301;DHT22;8258;51.020;4.248;2022-10-04T06:00:09;8.10;99.90
16301;DHT22;8258;51.020;4.248;2022-10-04T06:03:01;8.20;99.90
16301;DHT22;8258;51.020;4.248;2022-10-04T06:05:40;8.20;99.90
16301;DHT22;8258;51.020;4.248;2022-10-04T06:08:14;8.30;99.90
16301;DHT22;8258;51.020;4.248;2022-10-04T06:10:50;8.30;99.90
16301;DHT22;8258;51.020;4.248;2022-10-04T06:13:30;8.40;99.90
16301;DHT22;8258;51.020;4.248;2022-10-04T06:16:14;8.50;99.90
16301;DHT22;8258;51.020;4.248;2022-10-04T06:19:08;8.50;99.90
16301;DHT22;8258;51.020;4.248;2022-10-04T06:21:45;8.50;99.90
16301;DHT22;8258;51.020;4.248;2022-10-04T06:24:25;8.70;99.90
16301;DHT22;8258;51.020;4.248;2022-10-04T06:26:58;8.90;99.90
16301;DHT22;8258;51.020;4.248;2022-10-04T06:29:29;9.40;99.90
16301;DHT22;8258;51.020;4.248;2022-10-04T06:32:16;10.10;99.90
16301;DHT22;8258;51.020;4.248;2022-10-04T06:35:13;11.00;99.90
16301;DHT22;8258;51.020;4.248;2022-10-04T06:38:05;11.40;99.90
16301;DHT22;8258;51.020;4.248;2022-10-04T06:40:57;11.50;99.90
16301;DHT22;8258;51.020;4.248;2022-10-04T06:43:38;11.30;99.90
16301;DHT22;8258;51.020;4.248;2022-10-04T06:46:13;10.80;99.90
16301;DHT22;8258;51.020;4.248;2022-10-04T06:52:08;10.90;99.90
16301;DHT22;8258;51.020;4.248;2022-10-04T06:57:50;11.30;99.90
16301;DHT22;8258;51.020;4.248;2022-10-04T07:00:21;11.90;99.90
16301;DHT22;8258;51.020;4.248;2022-10-04T07:02:51;13.10;99.90
16301;DHT22;8258;51.020;4.248;2022-10-04T07:05:24;13.90;99.90
16301;DHT22;8258;51.020;4.248;2022-10-04T07:08:04;14.30;99.90
16301;DHT22;8258;51.020;4.248;2022-10-04T07:10:37;14.80;99.90
16301;DHT22;8258;51.020;4.248;2022-10-04T07:13:36;15.10;99.90
16301;DHT22;8258;51.020;4.248;2022-10-04T07:16:08;15.50;99.90
16301;DHT22;8258;51.020;4.248;2022-10-04T07:18:40;15.50;99.90
16301;DHT22;8258;51.020;4.248;2022-10-04T07:21:11;15.70;99.90
16301;DHT22;8258;51.020;4.248;2022-10-04T07:23:45;15.20;99.90
16301;DHT22;8258;51.020;4.248;2022-10-04T07:26:21;15.50;99.90
16301;DHT22;8258;51.020;4.248;2022-10-04T07:28:53;15.80;99.90
16301;DHT22;8258;51.020;4.248;2022-10-04T07:31:40;16.30;99.90
16301;DHT22;8258;51.020;4.248;2022-10-04T07:34:09;16.40;99.90
16301;DHT22;8258;51.020;4.248;2022-10-04T07:36:44;16.50;99.90
16301;DHT22;8258;51.020;4.248;2022-10-04T07:39:14;16.20;99.90
16301;DHT22;8258;51.020;4.248;2022-10-04T07:41:47;15.70;99.90
16301;DHT22;8258;51.020;4.248;2022-10-04T07:44:23;15.50;99.90
16301;DHT22;8258;51.020;4.248;2022-10-04T07:46:56;15.90;99.90
16301;DHT22;8258;51.020;4.248;2022-10-04T07:49:25;16.20;99.90
16301;DHT22;8258;51.020;4.248;2022-10-04T07:52:22;16.40;99.90
16301;DHT22;8258;51.020;4.248;2022-10-04T07:54:58;15.90;99.90
16301;DHT22;8258;51.020;4.248;2022-10-04T07:57:31;15.80;99.90
16301;DHT22;8258;51.020;4.248;2022-10-04T08:00:04;16.10;99.90
16301;DHT22;8258;51.020;4.248;2022-10-04T08:02:45;16.50;99.90
16301;DHT22;8258;51.020;4.248;2022-10-04T08:05:20;16.80;99.90
16301;DHT22;8258;51.020;4.248;2022-10-04T08:08:15;17.20;99.90
16301;DHT22;8258;51.020;4.248;2022-10-04T08:10:53;17.50;99.90
16301;DHT22;8258;51.020;4.248;2022-10-04T08:13:36;17.30;99.90
16301;DHT22;8258;51.020;4.248;2022-10-04T08:16:16;16.60;99.90
16301;DHT22;8258;51.020;4.248;2022-10-04T08:18:55;15.90;99.90
16301;DHT22;8258;51.020;4.248;2022-10-04T08:21:40;15.70;99.90
16301;DHT22;8258;51.020;4.248;2022-10-04T08:24:19;16.30;99.90
16301;DHT22;8258;51.020;4.248;2022-10-04T08:27:14;17.00;99.90
16301;DHT22;8258;51.020;4.248;2022-10-04T08:30:01;17.00;99.90
16301;DHT22;8258;51.020;4.248;2022-10-04T08:32:43;17.70;99.90
16301;DHT22;8258;51.020;4.248;2022-10-04T08:35:32;17.70;99.90
16301;DHT22;8258;51.020;4.248;2022-10-04T08:38:27;17.10;99.90
16301;DHT22;8258;51.020;4.248;2022-10-04T08:50:45;17.40;99.90
16301;DHT22;8258;51.020;4.248;2022-10-04T08:56:35;18.90;99.90
16301;DHT22;8258;51.020;4.248;2022-10-04T09:12:18;18.50;99.90
16301;DHT22;8258;51.020;4.248;2022-10-04T09:15:11;19.20;99.90
16301;DHT22;8258;51.020;4.248;2022-10-04T09:17:52;19.40;99.90
16301;DHT22;8258;51.020;4.248;2022-10-04T09:20:22;19.30;99.90
16301;DHT22;8258;51.020;4.248;2022-10-04T09:23:06;19.00;99.90
16301;DHT22;8258;51.020;4.248;2022-10-04T09:25:58;18.80;99.90
16301;DHT22;8258;51.020;4.248;2022-10-04T09:29:04;20.00;99.90
16301;DHT22;8258;51.020;4.248;2022-10-04T09:38:08;20.90;99.90
16301;DHT22;8258;51.020;4.248;2022-10-04T09:40:56;20.40;99.90
16301;DHT22;8258;51.020;4.248;2022-10-04T09:44:00;20.00;99.90
16301;DHT22;8258;51.020;4.248;2022-10-04T09:46:48;20.60;99.90
16301;DHT22;8258;51.020;4.248;2022-10-04T09:49:27;21.30;99.90
16301;DHT22;8258;51.020;4.248;2022-10-04T09:52:19;21.80;99.90
16301;DHT22;8258;51.020;4.248;2022-10-04T09:55:08;22.20;99.90
16301;DHT22;8258;51.020;4.248;2022-10-04T09:57:47;23.00;99.90
16301;DHT22;8258;51.020;4.248;2022-10-04T10:00:22;23.10;99.90
16301;DHT22;8258;51.020;4.248;2022-10-04T10:03:04;23.00;99.90
16301;DHT22;8258;51.020;4.248;2022-10-04T10:08:58;20.70;99.90
16301;DHT22;8258;51.020;4.248;2022-10-04T10:11:37;20.30;99.90
16301;DHT22;8258;51.020;4.248;2022-10-04T10:14:50;20.90;99.90
16301;DHT22;8258;51.020;4.248;2022-10-04T10:17:25;21.80;99.90
16301;DHT22;8258;51.020;4.248;2022-10-04T10:23:38;22.30;99.90
16301;DHT22;8258;51.020;4.248;2022-10-04T10:26:22;22.30;99.90
16301;DHT22;8258;51.020;4.248;2022-10-04T10:29:23;23.00;99.90
16301;DHT22;8258;51.020;4.248;2022-10-04T10:35:26;22.70;99.90
16301;DHT22;8258;51.020;4.248;2022-10-04T10:38:10;21.60;99.90
16301;DHT22;8258;51.020;4.248;2022-10-04T10:41:02;21.60;99.90
16301;DHT22;8258;51.020;4.248;2022-10-04T10:43:48;22.10;99.90
16301;DHT22;8258;51.020;4.248;2022-10-04T10:46:36;22.10;99.90
16301;DHT22;8258;51.020;4.248;2022-10-04T10:49:25;23.10;99.90
16301;DHT22;8258;51.020;4.248;2022-10-04T10:55:18;23.10;99.90
16301;DHT22;8258;51.020;4.248;2022-10-04T10:58:33;23.70;99.90
16301;DHT22;8258;51.020;4.248;2022-10-04T11:01:32;24.90;99.90
16301;DHT22;8258;51.020;4.248;2022-10-04T11:04:37;25.20;99.90
16301;DHT22;8258;51.020;4.248;2022-10-04T11:10:45;26.00;99.90
16301;DHT22;8258;51.020;4.248;2022-10-04T11:13:34;24.80;99.90
16301;DHT22;8258;51.020;4.248;2022-10-04T11:16:18;23.50;99.90
16301;DHT22;8258;51.020;4.248;2022-10-04T11:19:27;23.30;99.90
16301;DHT22;8258;51.020;4.248;2022-10-04T11:28:13;25.40;99.90
16301;DHT22;8258;51.020;4.248;2022-10-04T11:34:21;25.70;99.90
16301;DHT22;8258;51.020;4.248;2022-10-04T11:37:06;23.90;99.90
16301;DHT22;8258;51.020;4.248;2022-10-04T11:39:56;22.70;99.90
16301;DHT22;8258;51.020;4.248;2022-10-04T11:42:39;22.50;99.90
16301;DHT22;8258;51.020;4.248;2022-10-04T11:45:26;23.20;99.90
16301;DHT22;8258;51.020;4.248;2022-10-04T11:48:12;24.80;99.90
16301;DHT22;8258;51.020;4.248;2022-10-04T11:51:07;25.40;99.90
16301;DHT22;8258;51.020;4.248;2022-10-04T11:57:02;27.30;99.20
16301;DHT22;8258;51.020;4.248;2022-10-04T11:59:44;27.40;98.40
16301;DHT22;8258;51.020;4.248;2022-10-04T12:05:48;26.60;99.20
16301;DHT22;8258;51.020;4.248;2022-10-04T12:08:29;27.20;98.00
16301;DHT22;8258;51.020;4.248;2022-10-04T12:11:39;27.00;97.80
16301;DHT22;8258;51.020;4.248;2022-10-04T12:14:36;27.50;97.30
16301;DHT22;8258;51.020;4.248;2022-10-04T12:17:37;27.30;97.10
16301;DHT22;8258;51.020;4.248;2022-10-04T12:20:35;26.90;97.80
16301;DHT22;8258;51.020;4.248;2022-10-04T12:23:31;26.70;97.70
16301;DHT22;8258;51.020;4.248;2022-10-04T12:32:16;25.60;99.80
16301;DHT22;8258;51.020;4.248;2022-10-04T12:34:52;25.60;99.80
16301;DHT22;8258;51.020;4.248;2022-10-04T12:37:26;25.70;99.90
16301;DHT22;8258;51.020;4.248;2022-10-04T12:40:06;26.30;98.40
16301;DHT22;8258;51.020;4.248;2022-10-04T12:42:46;25.50;99.80
16301;DHT22;8258;51.020;4.248;2022-10-04T12:45:37;25.70;99.80
16301;DHT22;8258;51.020;4.248;2022-10-04T12:48:20;26.30;99.70
16301;DHT22;8258;51.020;4.248;2022-10-04T12:50:54;26.70;99.00
16301;DHT22;8258;51.020;4.248;2022-10-04T12:53:32;27.00;98.20
16301;DHT22;8258;51.020;4.248;2022-10-04T12:56:07;26.00;99.20
16301;DHT22;8258;51.020;4.248;2022-10-04T13:01:49;25.80;99.90
16301;DHT22;8258;51.020;4.248;2022-10-04T13:04:28;26.20;99.60
16301;DHT22;8258;51.020;4.248;2022-10-04T13:07:35;26.60;98.70
16301;DHT22;8258;51.020;4.248;2022-10-04T13:10:28;27.00;98.40
16301;DHT22;8258;51.020;4.248;2022-10-04T13:16:10;26.50;99.20
16301;DHT22;8258;51.020;4.248;2022-10-04T13:18:49;26.00;99.80
16301;DHT22;8258;51.020;4.248;2022-10-04T13:21:38;26.50;99.50
16301;DHT22;8258;51.020;4.248;2022-10-04T13:24:13;26.00;99.50
16301;DHT22;8258;51.020;4.248;2022-10-04T13:26:52;26.10;99.90
16301;DHT22;8258;51.020;4.248;2022-10-04T13:29:25;26.10;99.90
16301;DHT22;8258;51.020;4.248;2022-10-04T13:32:00;26.70;99.00
16301;DHT22;8258;51.020;4.248;2022-10-04T13:34:35;25.60;99.90
16301;DHT22;8258;51.020;4.248;2022-10-04T13:37:19;25.00;99.90
16301;DHT22;8258;51.020;4.248;2022-10-04T13:40:23;25.50;99.90
16301;DHT22;8258;51.020;4.248;2022-10-04T13:43:11;25.40;99.90
16301;DHT22;8258;51.020;4.248;2022-10-04T13:45:50;25.30;99.90
16301;DHT22;8258;51.020;4.248;2022-10-04T13:51:43;24.80;99.90
16301;DHT22;8258;51.020;4.248;2022-10-04T13:54:26;25.60;99.90
16301;DHT22;8258;51.020;4.248;2022-10-04T13:57:21;26.40;99.90
16301;DHT22;8258;51.020;4.248;2022-10-04T13:59:58;26.70;99.50
16301;DHT22;8258;51.020;4.248;2022-10-04T14:06:08;26.30;99.40
16301;DHT22;8258;51.020;4.248;2022-10-04T14:09:06;26.10;99.80
16301;DHT22;8258;51.020;4.248;2022-10-04T14:11:56;25.70;99.90
16301;DHT22;8258;51.020;4.248;2022-10-04T14:14:59;25.60;99.90
16301;DHT22;8258;51.020;4.248;2022-10-04T14:17:53;24.60;99.90
16301;DHT22;8258;51.020;4.248;2022-10-04T14:21:09;24.50;99.90
16301;DHT22;8258;51.020;4.248;2022-10-04T14:26:38;25.00;99.90
16301;DHT22;8258;51.020;4.248;2022-10-04T14:29:28;25.80;99.90
16301;DHT22;8258;51.020;4.248;2022-10-04T14:32:24;25.60;99.90
16301;DHT22;8258;51.020;4.248;2022-10-04T14:35:00;24.50;99.90
16301;DHT22;8258;51.020;4.248;2022-10-04T14:46:53;21.80;99.90
16301;DHT22;8258;51.020;4.248;2022-10-04T14:49:38;21.50;99.90
16301;DHT22;8258;51.020;4.248;2022-10-04T14:52:20;21.70;99.90
16301;DHT22;8258;51.020;4.248;2022-10-04T14:54:51;22.10;99.90
16301;DHT22;8258;51.020;4.248;2022-10-04T14:57:26;22.70;99.90
16301;DHT22;8258;51.020;4.248;2022-10-04T15:00:18;23.10;99.90
16301;DHT22;8258;51.020;4.248;2022-10-04T15:03:12;23.50;99.90
16301;DHT22;8258;51.020;4.248;2022-10-04T15:09:30;24.70;99.90
16301;DHT22;8258;51.020;4.248;2022-10-04T15:12:37;23.00;99.90
16301;DHT22;8258;51.020;4.248;2022-10-04T15:15:28;22.00;99.90
16301;DHT22;8258;51.020;4.248;2022-10-04T15:17:59;21.40;99.90
16301;DHT22;8258;51.020;4.248;2022-10-04T15:20:31;20.90;99.90
16301;DHT22;8258;51.020;4.248;2022-10-04T15:23:08;20.70;99.90
16301;DHT22;8258;51.020;4.248;2022-10-04T15:25:42;20.50;99.90
16301;DHT22;8258;51.020;4.248;2022-10-04T15:28:40;20.20;99.90
16301;DHT22;8258;51.020;4.248;2022-10-04T15:31:21;20.20;99.90
16301;DHT22;8258;51.020;4.248;2022-10-04T15:34:00;20.10;99.90
16301;DHT22;8258;51.020;4.248;2022-10-04T15:36:46;19.90;99.90
16301;DHT22;8258;51.020;4.248;2022-10-04T15:39:43;19.80;99.90
16301;DHT22;8258;51.020;4.248;2022-10-04T15:42:20;19.90;99.90
16301;DHT22;8258;51.020;4.248;2022-10-04T15:45:04;19.80;99.90
16301;DHT22;8258;51.020;4.248;2022-10-04T15:47:54;19.80;99.90
16301;DHT22;8258;51.020;4.248;2022-10-04T15:50:25;20.00;99.90
16301;DHT22;8258;51.020;4.248;2022-10-04T15:53:10;19.70;99.90
16301;DHT22;8258;51.020;4.248;2022-10-04T15:55:59;19.70;99.90
16301;DHT22;8258;51.020;4.248;2022-10-04T15:58:49;19.50;99.90
16301;DHT22;8258;51.020;4.248;2022-10-04T16:01:31;19.60;99.90
16301;DHT22;8258;51.020;4.248;2022-10-04T16:04:39;19.50;99.90
16301;DHT22;8258;51.020;4.248;2022-10-04T16:10:17;19.20;99.90
16301;DHT22;8258;51.020;4.248;2022-10-04T16:13:22;19.00;99.90
16301;DHT22;8258;51.020;4.248;2022-10-04T16:16:23;18.80;99.90
16301;DHT22;8258;51.020;4.248;2022-10-04T16:19:04;18.70;99.90
16301;DHT22;8258;51.020;4.248;2022-10-04T16:21:47;18.70;99.90
16301;DHT22;8258;51.020;4.248;2022-10-04T16:24:39;18.60;99.90
16301;DHT22;8258;51.020;4.248;2022-10-04T16:27:28;18.50;99.90
16301;DHT22;8258;51.020;4.248;2022-10-04T16:30:05;18.40;99.90
16301;DHT22;8258;51.020;4.248;2022-10-04T16:32:41;18.60;99.90
16301;DHT22;8258;51.020;4.248;2022-10-04T16:35:21;18.60;99.90
16301;DHT22;8258;51.020;4.248;2022-10-04T16:37:56;18.60;99.90
16301;DHT22;8258;51.020;4.248;2022-10-04T16:40:31;18.40;99.90
16301;DHT22;8258;51.020;4.248;2022-10-04T16:43:04;18.30;99.90
16301;DHT22;8258;51.020;4.248;2022-10-04T16:45:46;18.20;99.90
16301;DHT22;8258;51.020;4.248;2022-10-04T16:48:32;18.20;99.90
16301;DHT22;8258;51.020;4.248;2022-10-04T16:51:21;18.10;99.90
16301;DHT22;8258;51.020;4.248;2022-10-04T16:53:55;18.10;99.90
16301;DHT22;8258;51.020;4.248;2022-10-04T16:56:26;17.90;99.90
16301;DHT22;8258;51.020;4.248;2022-10-04T16:58:56;17.90;99.90
16301;DHT22;8258;51.020;4.248;2022-10-04T17:04:48;17.60;99.90
16301;DHT22;8258;51.020;4.248;2022-10-04T17:07:40;17.40;99.90
16301;DHT22;8258;51.020;4.248;2022-10-04T17:10:26;17.40;99.90
16301;DHT22;8258;51.020;4.248;2022-10-04T17:12:59;17.20;99.90
16301;DHT22;8258;51.020;4.248;2022-10-04T17:15:46;17.10;99.90
16301;DHT22;8258;51.020;4.248;2022-10-04T17:18:21;16.90;99.90
16301;DHT22;8258;51.020;4.248;2022-10-04T17:20:55;16.90;99.90
16301;DHT22;8258;51.020;4.248;2022-10-04T17:26:28;16.70;99.90
16301;DHT22;8258;51.020;4.248;2022-10-04T17:29:13;16.60;99.90
16301;DHT22;8258;51.020;4.248;2022-10-04T17:31:47;16.60;99.90
16301;DHT22;8258;51.020;4.248;2022-10-04T17:34:27;16.50;99.90
16301;DHT22;8258;51.020;4.248;2022-10-04T17:37:03;16.60;99.90
16301;DHT22;8258;51.020;4.248;2022-10-04T17:39:42;16.60;99.90
16301;DHT22;8258;51.020;4.248;2022-10-04T17:42:23;16.80;99.90
16301;DHT22;8258;51.020;4.248;2022-10-04T17:45:20;16.90;99.90
16301;DHT22;8258;51.020;4.248;2022-10-04T17:47:58;16.90;99.90
16301;DHT22;8258;51.020;4.248;2022-10-04T17:50:52;16.90;99.90
16301;DHT22;8258;51.020;4.248;2022-10-04T17:53:42;16.90;99.90
16301;DHT22;8258;51.020;4.248;2022-10-04T17:56:32;16.90;99.90
16301;DHT22;8258;51.020;4.248;2022-10-04T17:59:06;16.80;99.90
16301;DHT22;8258;51.020;4.248;2022-10-04T18:01:40;16.80;99.90
16301;DHT22;8258;51.020;4.248;2022-10-04T18:04:14;16.70;99.90
16301;DHT22;8258;51.020;4.248;2022-10-04T18:06:48;16.70;99.90
16301;DHT22;8258;51.020;4.248;2022-10-04T18:09:21;16.50;99.90
16301;DHT22;8258;51.020;4.248;2022-10-04T18:11:53;16.60;99.90
16301;DHT22;8258;51.020;4.248;2022-10-04T18:14:44;16.50;99.90
16301;DHT22;8258;51.020;4.248;2022-10-04T18:17:25;16.40;99.90
16301;DHT22;8258;51.020;4.248;2022-10-04T18:20:00;16.40;99.90
16301;DHT22;8258;51.020;4.248;2022-10-04T18:22:45;16.30;99.90
16301;DHT22;8258;51.020;4.248;2022-10-04T18:25:14;16.20;99.90
16301;DHT22;8258;51.020;4.248;2022-10-04T18:27:51;16.20;99.90
16301;DHT22;8258;51.020;4.248;2022-10-04T18:30:28;16.30;99.90
16301;DHT22;8258;51.020;4.248;2022-10-04T18:32:55;16.30;99.90
16301;DHT22;8258;51.020;4.248;2022-10-04T18:35:27;16.30;99.90
16301;DHT22;8258;51.020;4.248;2022-10-04T18:37:55;16.20;99.90
16301;DHT22;8258;51.020;4.248;2022-10-04T18:40:25;16.30;99.90
16301;DHT22;8258;51.020;4.248;2022-10-04T18:42:54;16.30;99.90
16301;DHT22;8258;51.020;4.248;2022-10-04T18:45:25;16.30;99.90
16301;DHT22;8258;51.020;4.248;2022-10-04T18:47:55;16.30;99.90
16301;DHT22;8258;51.020;4.248;2022-10-04T18:50:32;16.30;99.90
16301;DHT22;8258;51.020;4.248;2022-10-04T18:53:13;16.30;99.90
16301;DHT22;8258;51.020;4.248;2022-10-04T18:55:45;16.30;99.90
16301;DHT22;8258;51.020;4.248;2022-10-04T18:58:25;16.20;99.90
16301;DHT22;8258;51.020;4.248;2022-10-04T19:01:36;16.30;99.90
16301;DHT22;8258;51.020;4.248;2022-10-04T19:04:39;16.20;99.90
16301;DHT22;8258;51.020;4.248;2022-10-04T19:07:10;16.20;99.90
16301;DHT22;8258;51.020;4.248;2022-10-04T19:12:38;16.20;99.90
16301;DHT22;8258;51.020;4.248;2022-10-04T19:15:24;16.20;99.90